createdAt,value
2023-05-12T00:00:38.001Z,8.700
2023-05-12T00:01:38.412Z,9.100
2023-05-12T00:02:38.481Z,8.900
2023-05-12T00:03:39.493Z,9.400
2023-05-12T00:04:37.657Z,9.600
2023-05-12T00:05:38.017Z,9.500
2023-05-12T00:06:38.266Z,9.400
2023-05-12T00:07:37.536Z,9.800
2023-05-12T00:08:37.747Z,8.300
2023-05-12T00:09:37.973Z,8.900
2023-05-12T00:10:38.905Z,8.700
2023-05-12T00:11:38.219Z,9.800
2023-05-12T00:12:38.040Z,9.900
2023-05-12T00:13:38.624Z,8.900
2023-05-12T00:14:37.894Z,9.900
2023-05-12T00:15:38.130Z,9.700
2023-05-12T00:16:37.705Z,9.900
2023-05-12T00:17:38.703Z,10.300
2023-05-12T00:18:38.446Z,8.900
2023-05-12T00:19:37.655Z,9.400
2023-05-12T00:20:37.910Z,8.800
2023-05-12T00:21:38.195Z,9.600
2023-05-12T00:23:38.467Z,10.300
2023-05-12T00:24:38.198Z,9.200
2023-05-12T00:25:38.283Z,8.900
2023-05-12T00:26:37.435Z,8.900
2023-05-12T00:27:37.680Z,10.100
2023-05-12T00:28:38.573Z,9.700
2023-05-12T00:29:37.779Z,8.600
2023-05-12T00:30:38.002Z,9.300
2023-05-12T00:31:39.174Z,8.800
2023-05-12T00:32:38.181Z,8.700
2023-05-12T00:33:37.972Z,9.200
2023-05-12T00:34:38.111Z,8.800
2023-05-12T00:35:37.384Z,8.900
2023-05-12T00:36:38.225Z,9.300
2023-05-12T00:37:37.478Z,8.900
2023-05-12T00:38:37.691Z,8.300
2023-05-12T00:39:38.475Z,8.900
2023-05-12T00:40:37.774Z,8.900
2023-05-12T00:41:37.942Z,8.600
2023-05-12T00:42:38.104Z,8.700
2023-05-12T00:43:37.329Z,8.700
2023-05-12T00:44:37.964Z,8.800
2023-05-12T00:45:38.342Z,8.400
2023-05-12T00:46:38.349Z,9.400
2023-05-12T00:47:38.455Z,8.800
2023-05-12T00:48:38.317Z,8.400
2023-05-12T00:51:38.601Z,8.800
2023-05-12T00:52:37.814Z,9.000
2023-05-12T00:53:52.731Z,8.200
2023-05-12T00:54:37.923Z,10.000
2023-05-12T00:55:38.101Z,8.400
2023-05-12T00:56:38.309Z,8.800
2023-05-12T00:57:38.250Z,9.100
2023-05-12T00:58:38.193Z,8.900
2023-05-12T00:59:38.276Z,8.900
2023-05-12T01:00:37.580Z,9.500
2023-05-12T01:01:38.697Z,8.600
2023-05-12T01:02:39.123Z,9.200
2023-05-12T01:03:38.537Z,9.300
2023-05-12T01:04:38.003Z,9.000
2023-05-12T01:05:38.812Z,8.400
2023-05-12T01:06:38.094Z,8.900
2023-05-12T01:07:38.298Z,9.100
2023-05-12T01:08:38.405Z,8.700
2023-05-12T01:09:38.176Z,8.400
2023-05-12T01:13:38.547Z,8.800
2023-05-12T01:14:37.717Z,8.900
2023-05-12T01:15:37.985Z,9.300
2023-05-12T01:16:38.837Z,8.800
2023-05-12T01:17:39.005Z,9.800
2023-05-12T01:18:38.368Z,8.800
2023-05-12T01:19:37.653Z,9.300
2023-05-12T01:20:37.794Z,8.600
2023-05-12T01:21:37.985Z,9.100
2023-05-12T01:22:38.149Z,8.700
2023-05-12T01:23:37.289Z,8.700
2023-05-12T01:24:37.554Z,9.300
2023-05-12T01:25:37.777Z,8.500
2023-05-12T01:26:37.984Z,8.700
2023-05-12T01:27:38.782Z,8.500
2023-05-12T01:28:38.132Z,8.500
2023-05-12T01:29:38.152Z,9.000
2023-05-12T01:30:37.314Z,8.900
2023-05-12T01:31:38.588Z,9.300
2023-05-12T01:32:38.111Z,9.400
2023-05-12T01:33:38.336Z,9.300
2023-05-12T01:34:37.615Z,8.600
2023-05-12T01:35:37.813Z,8.900
2023-05-12T01:36:38.740Z,9.600
2023-05-12T01:37:37.867Z,9.100
2023-05-12T01:38:38.076Z,9.000
2023-05-12T01:39:37.295Z,9.300
2023-05-12T01:41:37.284Z,8.600
2023-05-12T01:42:38.145Z,9.200
2023-05-12T01:43:37.389Z,8.600
2023-05-12T01:44:38.324Z,9.400
2023-05-12T01:45:37.455Z,9.100
2023-05-12T01:46:37.967Z,9.100
2023-05-12T01:47:38.486Z,8.100
2023-05-12T01:48:37.873Z,10.400
2023-05-12T01:49:38.807Z,9.500
2023-05-12T01:50:37.990Z,8.900
2023-05-12T01:51:38.147Z,9.900
2023-05-12T01:52:37.257Z,9.600
2023-05-12T01:53:38.094Z,8.700
2023-05-12T01:54:37.326Z,9.500
2023-05-12T01:55:38.257Z,9.600
2023-05-12T01:56:37.352Z,9.900
2023-05-12T01:57:37.491Z,9.000
2023-05-12T01:58:37.734Z,9.000
2023-05-12T01:59:38.676Z,10.100
2023-05-12T02:00:37.847Z,9.500
2023-05-12T02:01:38.323Z,9.600
2023-05-12T02:02:39.660Z,10.100
2023-05-12T02:03:39.510Z,9.600
2023-05-12T02:04:37.743Z,9.300
2023-05-12T02:05:37.965Z,9.700
2023-05-12T02:06:38.188Z,9.600
2023-05-12T02:07:37.354Z,10.100
2023-05-12T02:08:37.675Z,9.400
2023-05-12T02:09:37.898Z,9.700
2023-05-12T02:10:38.627Z,10.100
2023-05-12T02:11:37.875Z,9.200
2023-05-12T02:12:38.040Z,9.000
2023-05-12T02:13:38.927Z,10.000
2023-05-12T02:14:38.175Z,8.900
2023-05-12T02:15:38.058Z,9.000
2023-05-12T02:16:38.703Z,10.000
2023-05-12T02:17:38.151Z,9.000
2023-05-12T02:18:38.575Z,8.900
2023-05-12T02:19:38.493Z,8.300
2023-05-12T02:22:38.046Z,9.200
2023-05-12T02:23:38.810Z,9.600
2023-05-12T02:24:38.021Z,9.700
2023-05-12T02:25:38.270Z,9.500
2023-05-12T02:26:38.034Z,9.700
2023-05-12T02:27:38.386Z,9.000
2023-05-12T02:28:37.732Z,9.400
2023-05-12T02:29:38.358Z,8.800
2023-05-12T02:30:37.640Z,9.000
2023-05-12T02:31:38.601Z,10.300
2023-05-12T02:32:38.945Z,8.800
2023-05-12T02:33:38.776Z,8.500
2023-05-12T02:36:37.368Z,9.100
2023-05-12T02:37:38.187Z,9.100
2023-05-12T02:38:38.279Z,8.900
2023-05-12T02:39:38.301Z,8.500
2023-05-12T02:40:38.443Z,9.000
2023-05-12T02:41:37.776Z,10.000
2023-05-12T02:42:38.716Z,10.700
2023-05-12T02:43:37.854Z,9.600
2023-05-12T02:44:38.106Z,9.300
2023-05-12T02:45:37.641Z,9.600
2023-05-12T02:46:37.997Z,8.900
2023-05-12T02:47:38.591Z,9.200
2023-05-12T02:48:37.909Z,9.500
2023-05-12T02:49:38.234Z,9.500
2023-05-12T02:50:37.372Z,9.500
2023-05-12T02:51:37.636Z,9.100
2023-05-12T02:52:37.861Z,8.900
2023-05-12T02:53:38.659Z,10.100
2023-05-12T02:54:37.905Z,10.000
2023-05-12T02:55:38.294Z,9.100
2023-05-12T02:56:40.962Z,9.100
2023-05-12T02:57:38.177Z,9.000
2023-05-12T03:00:38.286Z,9.000
2023-05-12T03:01:38.464Z,9.700
2023-05-12T03:02:39.071Z,9.700
2023-05-12T03:03:38.350Z,8.500
2023-05-12T03:04:38.573Z,10.200
2023-05-12T03:05:37.731Z,10.400
2023-05-12T03:06:37.974Z,10.100
2023-05-12T03:07:38.868Z,8.900
2023-05-12T03:08:38.013Z,9.000
2023-05-12T03:09:38.267Z,10.600
2023-05-12T03:10:37.432Z,9.500
2023-05-12T03:11:38.311Z,9.600
2023-05-12T03:12:38.422Z,9.600
2023-05-12T03:13:38.545Z,9.600
2023-05-12T03:14:37.709Z,9.200
2023-05-12T03:15:38.569Z,9.600
2023-05-12T03:16:38.040Z,9.500
2023-05-12T03:17:37.952Z,10.000
2023-05-12T03:18:39.198Z,9.900
2023-05-12T03:21:37.397Z,10.400
2023-05-12T03:22:38.246Z,10.100
2023-05-12T03:23:37.408Z,10.700
2023-05-12T03:24:37.649Z,10.700
2023-05-12T03:25:37.834Z,10.000
2023-05-12T03:26:38.781Z,8.900
2023-05-12T03:28:38.059Z,9.900
2023-05-12T03:29:38.920Z,10.100
2023-05-12T03:30:38.194Z,9.300
2023-05-12T03:31:38.211Z,9.900
2023-05-12T03:32:38.368Z,10.200
2023-05-12T03:34:37.386Z,10.400
2023-05-12T03:35:38.412Z,10.100
2023-05-12T03:36:37.652Z,10.200
2023-05-12T03:37:38.616Z,10.500
2023-05-12T03:38:37.846Z,10.100
2023-05-12T03:39:38.063Z,9.600
2023-05-12T03:40:38.943Z,10.300
2023-05-12T03:41:38.137Z,9.900
2023-05-12T03:42:37.272Z,10.200
2023-05-12T03:43:37.531Z,10.400
2023-05-12T03:44:38.243Z,10.700
2023-05-12T03:45:37.367Z,9.500
2023-05-12T03:46:38.936Z,10.000
2023-05-12T03:47:37.895Z,10.200
2023-05-12T03:48:38.396Z,9.800
2023-05-12T03:50:37.902Z,9.700
2023-05-12T03:51:38.070Z,9.400
2023-05-12T03:52:38.297Z,9.500
2023-05-12T03:53:38.060Z,9.400
2023-05-12T03:54:40.620Z,9.800
2023-05-12T03:55:38.292Z,9.900
2023-05-12T03:56:38.382Z,9.900
2023-05-12T03:57:38.458Z,9.100
2023-05-12T03:58:37.629Z,9.800
2023-05-12T03:59:37.823Z,8.800
2023-05-12T04:00:38.928Z,8.600
2023-05-12T04:01:37.731Z,8.300
2023-05-12T04:02:38.615Z,8.900
2023-05-12T04:03:38.339Z,9.400
2023-05-12T04:04:37.837Z,8.700
2023-05-12T04:05:38.011Z,9.000
2023-05-12T04:06:38.254Z,9.000
2023-05-12T04:07:37.439Z,9.100
2023-05-12T04:09:38.328Z,9.100
2023-05-12T04:10:37.580Z,9.100
2023-05-12T04:11:37.895Z,8.700
2023-05-12T04:12:39.934Z,8.600
2023-05-12T04:13:37.879Z,9.300
2023-05-12T04:14:47.906Z,8.000
2023-05-12T04:15:38.155Z,8.100
2023-05-12T04:18:37.665Z,8.000
2023-05-12T04:19:38.509Z,8.800
2023-05-12T04:20:37.728Z,8.300
2023-05-12T04:21:37.889Z,8.000
2023-05-12T04:22:38.756Z,8.300
2023-05-12T04:23:38.248Z,8.200
2023-05-12T04:24:37.474Z,8.400
2023-05-12T04:25:37.967Z,8.400
2023-05-12T04:26:38.158Z,8.500
2023-05-12T04:27:37.362Z,8.600
2023-05-12T04:28:38.389Z,8.400
2023-05-12T04:29:38.535Z,8.400
2023-05-12T04:30:38.489Z,9.800
2023-05-12T04:32:39.137Z,8.700
2023-05-12T04:33:37.418Z,8.400
2023-05-12T04:34:37.814Z,8.300
2023-05-12T04:35:38.055Z,8.400
2023-05-12T04:36:37.311Z,8.300
2023-05-12T04:37:37.564Z,9.600
2023-05-12T04:38:38.211Z,8.700
2023-05-12T04:39:37.340Z,9.100
2023-05-12T04:40:41.180Z,8.500
2023-05-12T04:41:37.339Z,9.100
2023-05-12T04:42:37.597Z,8.400
2023-05-12T04:45:38.141Z,9.900
2023-05-12T04:46:37.806Z,8.700
2023-05-12T04:47:38.541Z,8.400
2023-05-12T04:48:37.794Z,8.400
2023-05-12T04:49:37.982Z,9.000
2023-05-12T04:50:38.221Z,9.100
2023-05-12T04:51:37.600Z,8.600
2023-05-12T04:52:38.452Z,8.700
2023-05-12T04:53:37.660Z,8.600
2023-05-12T04:54:37.889Z,7.500
2023-05-12T04:55:38.113Z,9.100
2023-05-12T04:56:37.270Z,8.100
2023-05-12T04:57:37.508Z,9.000
2023-05-12T04:58:37.969Z,8.700
2023-05-12T04:59:41.036Z,8.900
2023-05-12T05:00:38.258Z,8.400
2023-05-12T05:01:37.715Z,7.500
2023-05-12T05:02:38.583Z,8.100
2023-05-12T05:03:39.157Z,9.100
2023-05-12T05:04:37.620Z,8.700
2023-05-12T05:05:38.031Z,8.300
2023-05-12T05:06:38.840Z,7.700
2023-05-12T05:07:38.020Z,8.600
2023-05-12T05:08:38.210Z,8.000
2023-05-12T05:09:40.106Z,7.900
2023-05-12T05:12:38.341Z,8.000
2023-05-12T05:13:37.603Z,7.900
2023-05-12T05:14:38.489Z,8.200
2023-05-12T05:15:37.888Z,8.500
2023-05-12T05:16:38.750Z,8.400
2023-05-12T05:17:38.306Z,8.500
2023-05-12T05:18:38.323Z,7.700
2023-05-12T05:19:57.299Z,8.200
2023-05-12T05:21:37.751Z,7.600
2023-05-12T05:22:37.994Z,8.100
2023-05-12T05:23:38.209Z,8.200
2023-05-12T05:24:37.323Z,8.300
2023-05-12T05:25:37.556Z,8.000
2023-05-12T05:26:37.734Z,7.800
2023-05-12T05:27:37.939Z,8.000
2023-05-12T05:28:38.828Z,9.100
2023-05-12T05:29:37.980Z,10.200
2023-05-12T05:30:38.188Z,9.200
2023-05-12T05:31:37.608Z,8.300
2023-05-12T05:32:38.366Z,8.900
2023-05-12T05:34:37.865Z,8.700
2023-05-12T05:35:38.179Z,8.500
2023-05-12T05:36:39.364Z,9.200
2023-05-12T05:37:37.582Z,8.500
2023-05-12T05:38:37.755Z,9.100
2023-05-12T05:39:38.042Z,8.900
2023-05-12T05:40:54.713Z,7.600
2023-05-12T05:43:38.106Z,8.900
2023-05-12T05:44:38.261Z,8.700
2023-05-12T05:45:37.420Z,8.100
2023-05-12T05:46:38.837Z,8.400
2023-05-12T05:47:38.440Z,8.700
2023-05-12T05:48:37.734Z,8.400
2023-05-12T05:49:37.928Z,8.500
2023-05-12T05:50:38.795Z,8.400
2023-05-12T05:51:37.979Z,7.800
2023-05-12T05:52:38.154Z,8.000
2023-05-12T05:53:37.328Z,7.900
2023-05-12T05:54:37.562Z,8.600
2023-05-12T05:55:37.799Z,8.100
2023-05-12T05:56:38.112Z,8.500
2023-05-12T05:57:37.291Z,9.100
2023-05-12T05:58:37.542Z,8.200
2023-05-12T05:59:38.531Z,8.200
2023-05-12T06:00:37.831Z,8.800
2023-05-12T06:01:38.787Z,9.000
2023-05-12T06:02:38.582Z,7.800
2023-05-12T06:03:39.996Z,8.600
2023-05-12T06:04:37.639Z,9.000
2023-05-12T06:05:37.895Z,8.200
2023-05-12T06:06:38.220Z,8.500
2023-05-12T06:07:37.438Z,8.900
2023-05-12T06:08:39.399Z,8.900
2023-05-12T06:10:38.624Z,8.600
2023-05-12T06:11:37.855Z,8.500
2023-05-12T06:12:37.999Z,8.500
2023-05-12T06:13:38.866Z,8.700
2023-05-12T06:14:37.999Z,8.700
2023-05-12T06:15:38.251Z,8.300
2023-05-12T06:16:37.709Z,8.100
2023-05-12T06:17:38.353Z,9.300
2023-05-12T06:18:38.693Z,9.100
2023-05-12T06:19:38.379Z,8.600
2023-05-12T06:20:37.522Z,9.200
2023-05-12T06:21:37.743Z,8.800
2023-05-12T06:22:37.923Z,9.000
2023-05-12T06:23:38.228Z,8.700
2023-05-12T06:24:37.404Z,9.600
2023-05-12T06:25:38.036Z,9.500
2023-05-12T06:26:38.169Z,9.200
2023-05-12T06:27:37.406Z,9.200
2023-05-12T06:28:38.406Z,10.000
2023-05-12T06:29:37.525Z,8.800
2023-05-12T06:30:38.436Z,9.200
2023-05-12T06:31:38.884Z,9.400
2023-05-12T06:32:39.054Z,9.100
2023-05-12T06:33:37.492Z,8.400
2023-05-12T06:34:37.814Z,8.600
2023-05-12T06:35:38.051Z,8.300
2023-05-12T06:36:38.289Z,8.800
2023-05-12T06:37:37.467Z,9.700
2023-05-12T06:38:38.203Z,7.800
2023-05-12T06:39:37.416Z,8.500
2023-05-12T06:40:38.480Z,8.900
2023-05-12T06:41:38.530Z,9.000
2023-05-12T06:42:37.766Z,8.700
2023-05-12T06:43:38.099Z,8.700
2023-05-12T06:44:38.112Z,8.800
2023-05-12T06:45:38.117Z,8.700
2023-05-12T06:46:37.510Z,8.100
2023-05-12T06:47:38.089Z,8.300
2023-05-12T06:48:37.379Z,8.100
2023-05-12T06:49:37.566Z,8.300
2023-05-12T06:50:38.372Z,7.800
2023-05-12T06:51:37.571Z,8.800
2023-05-12T06:52:38.492Z,7.900
2023-05-12T06:53:38.598Z,7.500
2023-05-12T06:54:37.783Z,8.500
2023-05-12T06:55:37.964Z,8.000
2023-05-12T06:56:38.124Z,7.000
2023-05-12T06:57:37.325Z,7.100
2023-05-12T06:58:37.723Z,8.100
2023-05-12T06:59:38.001Z,7.300
2023-05-12T07:00:38.326Z,8.200
2023-05-12T07:01:37.760Z,15.700
2023-05-12T07:02:38.889Z,17.800
2023-05-12T07:04:38.611Z,25.500
2023-05-12T07:05:38.081Z,15.400
2023-05-12T07:06:37.340Z,12.200
2023-05-12T07:07:37.565Z,10.600
2023-05-12T07:08:37.975Z,8.900
2023-05-12T07:09:38.247Z,8.500
2023-05-12T07:10:37.398Z,9.100
2023-05-12T07:11:37.673Z,8.600
2023-05-12T07:12:38.295Z,8.600
2023-05-12T07:13:37.618Z,8.200
2023-05-12T07:14:38.485Z,7.900
2023-05-12T07:15:40.872Z,8.500
2023-05-12T07:16:38.957Z,9.400
2023-05-12T07:17:39.015Z,8.800
2023-05-12T07:18:37.519Z,8.400
2023-05-12T07:19:37.946Z,8.700
2023-05-12T07:20:38.283Z,9.000
2023-05-12T07:21:37.485Z,8.400
2023-05-12T07:22:41.483Z,8.700
2023-05-12T07:23:38.313Z,7.700
2023-05-12T07:24:37.552Z,8.900
2023-05-12T07:25:38.785Z,8.400
2023-05-12T07:27:37.829Z,8.200
2023-05-12T07:28:38.115Z,8.500
2023-05-12T07:29:37.317Z,8.300
2023-05-12T07:30:37.634Z,9.000
2023-05-12T07:31:38.207Z,10.900
2023-05-12T07:32:38.140Z,8.500
2023-05-12T07:33:37.409Z,9.100
2023-05-12T07:34:37.994Z,8.400
2023-05-12T07:35:38.207Z,8.100
2023-05-12T07:36:37.385Z,7.600
2023-05-12T07:37:37.655Z,7.800
2023-05-12T07:38:37.858Z,7.900
2023-05-12T07:39:38.791Z,8.700
2023-05-12T07:40:37.950Z,8.700
2023-05-12T07:41:40.287Z,7.700
2023-05-12T07:42:38.245Z,8.300
2023-05-12T07:43:37.450Z,8.700
2023-05-12T07:44:38.226Z,8.200
2023-05-12T07:45:37.499Z,7.500
2023-05-12T07:46:38.654Z,8.000
2023-05-12T07:47:38.834Z,7.300
2023-05-12T07:48:38.263Z,8.300
2023-05-12T07:49:37.424Z,7.800
2023-05-12T07:50:37.830Z,8.000
2023-05-12T07:51:38.082Z,7.500
2023-05-12T07:52:37.308Z,8.200
2023-05-12T07:53:37.470Z,7.700
2023-05-12T07:54:37.765Z,7.500
2023-05-12T07:55:38.056Z,8.000
2023-05-12T07:56:38.301Z,7.600
2023-05-12T07:57:37.600Z,8.200
2023-05-12T07:58:38.697Z,7.900
2023-05-12T07:59:37.892Z,7.800
2023-05-12T08:00:38.750Z,7.600
2023-05-12T08:01:38.205Z,7.500
2023-05-12T08:02:38.048Z,7.400
2023-05-12T08:03:38.490Z,7.100
2023-05-12T08:04:38.436Z,7.500
2023-05-12T08:06:37.406Z,7.600
2023-05-12T08:07:37.631Z,7.200
2023-05-12T08:08:38.532Z,7.800
2023-05-12T08:09:38.617Z,8.100
2023-05-12T08:10:37.855Z,7.900
2023-05-12T08:11:38.839Z,7.100
2023-05-12T08:12:37.932Z,7.200
2023-05-12T08:13:38.952Z,7.700
2023-05-12T08:14:38.266Z,7.900
2023-05-12T08:15:37.432Z,7.500
2023-05-12T08:16:38.383Z,7.700
2023-05-12T08:17:41.077Z,7.200
2023-05-12T08:18:37.737Z,7.700
2023-05-12T08:19:38.550Z,7.400
2023-05-12T08:20:38.662Z,7.500
2023-05-12T08:21:37.889Z,7.700
2023-05-12T08:22:39.414Z,7.300
2023-05-12T08:23:37.626Z,7.800
2023-05-12T08:24:37.934Z,7.700
2023-05-12T08:25:38.369Z,7.500
2023-05-12T08:26:38.937Z,8.100
2023-05-12T08:27:38.260Z,8.100
2023-05-12T08:28:37.446Z,7.900
2023-05-12T08:29:37.639Z,7.300
2023-05-12T08:30:38.632Z,7.000
2023-05-12T08:31:39.019Z,7.000
2023-05-12T08:32:37.722Z,7.200
2023-05-12T08:33:38.006Z,6.700
2023-05-12T08:34:38.987Z,7.300
2023-05-12T08:35:38.369Z,6.700
2023-05-12T08:36:37.630Z,7.000
2023-05-12T08:37:40.063Z,7.300
2023-05-12T08:39:37.527Z,7.500
2023-05-12T08:40:38.530Z,7.500
2023-05-12T08:41:38.550Z,7.300
2023-05-12T08:42:38.608Z,7.700
2023-05-12T08:43:38.778Z,7.400
2023-05-12T08:44:38.016Z,7.900
2023-05-12T08:45:38.933Z,7.400
2023-05-12T08:46:38.436Z,7.800
2023-05-12T08:47:37.886Z,7.900
2023-05-12T08:48:37.491Z,8.000
2023-05-12T08:49:37.615Z,8.200
2023-05-12T08:50:37.790Z,6.700
2023-05-12T08:51:39.348Z,7.700
2023-05-12T08:52:37.695Z,6.900
2023-05-12T08:53:37.890Z,7.200
2023-05-12T08:54:56.117Z,8.100
2023-05-12T08:58:47.949Z,7.700
2023-05-12T09:00:38.183Z,7.300
2023-05-12T09:01:39.655Z,7.400
2023-05-12T09:02:57.644Z,7.400
2023-05-12T09:04:37.877Z,7.200
2023-05-12T09:05:39.334Z,6.900
2023-05-12T09:06:37.549Z,6.500
2023-05-12T09:07:37.907Z,7.700
2023-05-12T09:08:39.523Z,7.100
2023-05-12T09:09:37.725Z,6.100
2023-05-12T09:10:43.116Z,7.000
2023-05-12T09:13:37.669Z,6.700
2023-05-12T09:14:39.165Z,6.500
2023-05-12T09:15:37.448Z,6.400
2023-05-12T09:16:38.226Z,6.100
2023-05-12T09:17:37.719Z,6.400
2023-05-12T09:18:38.310Z,6.600
2023-05-12T09:19:37.703Z,6.200
2023-05-12T09:20:40.206Z,6.000
2023-05-12T09:21:37.382Z,6.700
2023-05-12T09:22:37.592Z,6.400
2023-05-12T09:23:38.084Z,6.300
2023-05-12T09:24:37.303Z,6.200
2023-05-12T09:25:37.522Z,6.600
2023-05-12T09:26:37.795Z,7.200
2023-05-12T09:27:39.193Z,5.800
2023-05-12T09:28:37.364Z,6.500
2023-05-12T09:29:59.685Z,6.000
2023-05-12T09:31:37.953Z,6.100
2023-05-12T09:32:39.775Z,6.200
2023-05-12T09:33:38.614Z,6.200
2023-05-12T09:34:38.011Z,5.900
2023-05-12T09:35:39.490Z,6.300
2023-05-12T09:36:38.057Z,6.000
2023-05-12T09:37:37.278Z,6.200
2023-05-12T09:38:37.951Z,5.600
2023-05-12T09:39:39.225Z,5.300
2023-05-12T09:40:37.473Z,5.300
2023-05-12T09:41:37.891Z,5.300
2023-05-12T09:43:37.669Z,6.200
2023-05-12T09:44:38.211Z,5.100
2023-05-12T09:45:37.877Z,5.700
2023-05-12T09:46:38.780Z,4.900
2023-05-12T09:47:39.739Z,5.500
2023-05-12T09:48:38.868Z,5.100
2023-05-12T09:49:39.914Z,5.600
2023-05-12T09:50:50.621Z,4.700
2023-05-12T09:53:39.361Z,4.800
2023-05-12T09:54:37.624Z,4.900
2023-05-12T09:55:37.820Z,4.400
2023-05-12T09:56:38.585Z,4.800
2023-05-12T09:57:37.819Z,5.400
2023-05-12T09:58:39.430Z,4.900
2023-05-12T09:59:37.710Z,4.700
2023-05-12T10:02:42.626Z,4.700
2023-05-12T10:03:41.173Z,3.800
2023-05-12T10:04:40.747Z,4.200
2023-05-12T10:05:41.073Z,4.600
2023-05-12T10:06:40.340Z,5.400
2023-05-12T10:07:40.555Z,4.400
2023-05-12T10:08:40.830Z,3.700
2023-05-12T10:09:40.325Z,4.300
2023-05-12T10:10:40.652Z,3.800
2023-05-12T10:11:40.956Z,4.000
2023-05-12T10:12:41.252Z,4.200
2023-05-12T10:13:40.490Z,4.500
2023-05-12T10:14:40.778Z,6.000
2023-05-12T10:15:40.964Z,4.300
2023-05-12T10:17:40.911Z,3.500
2023-05-12T10:18:41.550Z,4.100
2023-05-12T10:19:40.990Z,3.900
2023-05-12T10:20:41.205Z,3.700
2023-05-12T10:21:40.617Z,4.500
2023-05-12T10:22:40.874Z,4.000
2023-05-12T10:23:41.253Z,5.100
2023-05-12T10:24:40.574Z,4.900
2023-05-12T10:25:43.411Z,4.500
2023-05-12T10:26:40.828Z,4.500
2023-05-12T10:27:40.400Z,4.400
2023-05-12T10:28:40.843Z,4.300
2023-05-12T10:29:41.450Z,5.500
2023-05-12T10:30:40.723Z,4.300
2023-05-12T10:31:41.453Z,4.700
2023-05-12T10:32:41.085Z,5.000
2023-05-12T10:33:40.505Z,5.000
2023-05-12T10:34:37.885Z,5.100
2023-05-12T10:35:38.112Z,4.700
2023-05-12T10:39:38.326Z,4.700
2023-05-12T10:40:37.631Z,5.100
2023-05-12T10:41:37.857Z,5.200
2023-05-12T10:42:38.128Z,4.800
2023-05-12T10:43:37.327Z,5.400
2023-05-12T10:44:37.533Z,4.700
2023-05-12T10:45:37.848Z,5.700
2023-05-12T10:46:39.065Z,5.600
2023-05-12T10:47:37.740Z,5.600
2023-05-12T10:48:38.237Z,4.900
2023-05-12T10:49:37.381Z,5.500
2023-05-12T10:50:37.540Z,5.100
2023-05-12T10:51:37.782Z,5.100
2023-05-12T10:52:38.103Z,5.300
2023-05-12T10:53:54.589Z,5.500
2023-05-12T10:54:38.153Z,5.600
2023-05-12T10:55:38.557Z,5.400
2023-05-12T10:56:39.909Z,5.600
2023-05-12T10:57:40.853Z,5.100
2023-05-12T10:58:39.952Z,5.300
2023-05-12T10:59:40.375Z,5.500
2023-05-12T11:00:41.519Z,6.100
2023-05-12T11:01:44.578Z,6.700
2023-05-12T11:02:43.484Z,6.200
2023-05-12T11:03:44.245Z,5.700
2023-05-12T11:04:37.898Z,5.200
2023-05-12T11:05:40.426Z,5.500
2023-05-12T11:06:40.965Z,5.500
2023-05-12T11:07:40.046Z,5.900
2023-05-12T11:08:42.835Z,5.900
2023-05-12T11:09:57.027Z,5.400
2023-05-12T11:10:39.725Z,5.000
2023-05-12T11:11:41.176Z,5.500
2023-05-12T11:12:38.644Z,6.600
2023-05-12T11:13:37.942Z,5.100
2023-05-12T11:14:38.162Z,5.900
2023-05-12T11:15:37.399Z,5.900
2023-05-12T11:16:37.857Z,5.800
2023-05-12T11:17:37.639Z,5.700
2023-05-12T11:18:38.654Z,5.900
2023-05-12T11:19:38.698Z,5.800
2023-05-12T11:20:37.921Z,6.300
2023-05-12T11:21:38.895Z,5.400
2023-05-12T11:22:38.228Z,5.700
2023-05-12T11:23:37.603Z,5.700
2023-05-12T11:24:37.894Z,5.600
2023-05-12T11:25:38.347Z,5.500
2023-05-12T11:28:37.587Z,5.600
2023-05-12T11:29:37.806Z,5.700
2023-05-12T11:30:38.106Z,5.600
2023-05-12T11:31:37.533Z,6.100
2023-05-12T11:32:38.612Z,5.800
2023-05-12T11:33:37.947Z,5.800
2023-05-12T11:34:38.149Z,5.800
2023-05-12T11:35:37.334Z,5.600
2023-05-12T11:36:37.648Z,5.900
2023-05-12T11:37:37.870Z,5.000
2023-05-12T11:38:38.093Z,5.200
2023-05-12T11:39:37.472Z,5.700
2023-05-12T11:40:37.961Z,5.300
2023-05-12T11:41:38.195Z,4.900
2023-05-12T11:42:37.564Z,4.900
2023-05-12T11:43:37.794Z,4.800
2023-05-12T11:44:38.312Z,5.000
2023-05-12T11:45:37.671Z,5.300
2023-05-12T11:46:38.294Z,5.100
2023-05-12T11:47:37.731Z,4.800
2023-05-12T11:48:38.070Z,5.000
2023-05-12T11:49:38.307Z,5.300
2023-05-12T11:50:37.511Z,4.400
2023-05-12T11:51:37.684Z,4.400
2023-05-12T11:52:37.881Z,4.700
2023-05-12T11:53:39.395Z,4.600
2023-05-12T11:54:37.814Z,4.000
2023-05-12T11:55:38.014Z,5.200
2023-05-12T11:56:38.237Z,4.200
2023-05-12T11:57:37.524Z,4.100
2023-05-12T11:58:40.302Z,3.900
2023-05-12T12:02:39.035Z,4.100
2023-05-12T12:03:37.961Z,4.400
2023-05-12T12:04:38.788Z,4.200
2023-05-12T12:07:37.972Z,3.900
2023-05-12T12:08:38.271Z,3.600
2023-05-12T12:09:37.500Z,4.100
2023-05-12T12:10:37.822Z,4.100
2023-05-12T12:11:38.052Z,3.800
2023-05-12T12:12:38.348Z,3.700
2023-05-12T12:13:38.934Z,3.800
2023-05-12T12:15:37.472Z,4.000
2023-05-12T12:16:38.274Z,3.300
2023-05-12T12:17:37.913Z,3.600
2023-05-12T12:18:38.712Z,3.400
2023-05-12T12:19:38.192Z,2.900
2023-05-12T12:20:37.469Z,3.400
2023-05-12T12:21:37.751Z,3.200
2023-05-12T12:22:37.988Z,3.600
2023-05-12T12:23:53.019Z,3.500
2023-05-12T12:24:38.222Z,3.900
2023-05-12T12:26:39.398Z,3.700
2023-05-12T12:27:37.857Z,3.500
2023-05-12T12:28:38.107Z,3.400
2023-05-12T12:29:37.344Z,3.400
2023-05-12T12:30:37.640Z,3.200
2023-05-12T12:31:38.185Z,3.400
2023-05-12T12:32:37.903Z,3.700
2023-05-12T12:33:38.267Z,3.500
2023-05-12T12:34:37.464Z,3.200
2023-05-12T12:35:37.695Z,3.500
2023-05-12T12:36:37.924Z,3.300
2023-05-12T12:37:38.270Z,3.400
2023-05-12T12:38:37.430Z,3.700
2023-05-12T12:39:37.714Z,3.600
2023-05-12T12:40:37.931Z,4.000
2023-05-12T12:41:38.138Z,4.300
2023-05-12T12:42:37.402Z,3.300
2023-05-12T12:43:37.668Z,3.300
2023-05-12T12:44:38.036Z,3.100
2023-05-12T12:45:38.726Z,3.500
2023-05-12T12:46:38.309Z,3.800
2023-05-12T12:47:37.773Z,3.700
2023-05-12T12:48:38.077Z,3.600
2023-05-12T12:49:38.333Z,3.700
2023-05-12T12:50:37.542Z,3.500
2023-05-12T12:51:49.554Z,3.400
2023-05-12T12:52:37.754Z,4.000
2023-05-12T12:53:37.927Z,3.400
2023-05-12T12:54:38.203Z,3.600
2023-05-12T12:55:37.389Z,3.800
2023-05-12T12:56:37.648Z,3.400
2023-05-12T12:57:37.869Z,3.700
2023-05-12T12:58:38.068Z,3.800
2023-05-12T12:59:38.542Z,3.100
2023-05-12T13:00:37.904Z,3.700
2023-05-12T13:01:38.754Z,3.400
2023-05-12T13:02:38.467Z,3.500
2023-05-12T13:04:37.547Z,3.400
2023-05-12T13:05:37.781Z,3.400
2023-05-12T13:06:38.028Z,3.300
2023-05-12T13:07:38.233Z,3.900
2023-05-12T13:08:37.535Z,3.800
2023-05-12T13:09:37.727Z,3.700
2023-05-12T13:10:37.931Z,3.000
2023-05-12T13:11:38.322Z,3.700
2023-05-12T13:12:37.812Z,3.600
2023-05-12T13:13:38.074Z,3.800
2023-05-12T13:14:38.306Z,3.300
2023-05-12T13:15:37.575Z,3.800
2023-05-12T13:16:38.655Z,3.400
2023-05-12T13:17:38.307Z,3.800
2023-05-12T13:20:37.853Z,3.200
2023-05-12T13:21:38.121Z,3.500
2023-05-12T13:22:37.469Z,3.300
2023-05-12T13:23:37.789Z,3.900
2023-05-12T13:24:38.370Z,3.800
2023-05-12T13:25:37.615Z,3.600
2023-05-12T13:26:37.857Z,3.600
2023-05-12T13:27:38.110Z,3.300
2023-05-12T13:28:37.433Z,3.200
2023-05-12T13:29:37.615Z,3.800
2023-05-12T13:30:38.074Z,3.500
2023-05-12T13:31:37.737Z,3.600
2023-05-12T13:32:38.149Z,3.900
2023-05-12T13:33:37.433Z,4.000
2023-05-12T13:34:37.633Z,4.000
2023-05-12T13:35:37.996Z,3.400
2023-05-12T13:36:38.355Z,3.700
2023-05-12T13:37:37.698Z,3.700
2023-05-12T13:38:37.951Z,3.600
2023-05-12T13:39:38.258Z,3.800
2023-05-12T13:40:37.476Z,3.300
2023-05-12T13:41:37.813Z,4.000
2023-05-12T13:42:38.086Z,3.700
2023-05-12T13:43:37.370Z,3.600
2023-05-12T13:44:37.574Z,4.000
2023-05-12T13:45:37.820Z,3.600
2023-05-12T13:46:38.525Z,3.400
2023-05-12T13:47:38.024Z,3.400
2023-05-12T13:48:37.436Z,3.900
2023-05-12T13:49:37.650Z,4.300
2023-05-12T13:50:41.111Z,3.600
2023-05-12T13:51:37.349Z,3.500
2023-05-12T13:52:37.493Z,3.700
2023-05-12T13:53:37.791Z,4.000
2023-05-12T13:54:38.675Z,4.100
2023-05-12T13:55:43.288Z,3.900